sensor_id;sensor_type;location;lat;lon;timestamp;temperature;humidity
34891;DHT22;21103;51.358;12.412;2022-08-19T00:01:41;21.50;99.90
34891;DHT22;21103;51.358;12.412;2022-08-19T00:04:09;21.50;99.90
34891;DHT22;21103;51.358;12.412;2022-08-19T00:06:36;21.60;99.90
34891;DHT22;21103;51.358;12.412;2022-08-19T00:09:03;21.50;99.90
34891;DHT22;21103;51.358;12.412;2022-08-19T00:11:29;21.50;99.90
34891;DHT22;21103;51.358;12.412;2022-08-19T00:13:55;21.60;99.90
34891;DHT22;21103;51.358;12.412;2022-08-19T00:16:22;21.60;99.90
34891;DHT22;21103;51.358;12.412;2022-08-19T00:18:48;21.70;99.90
34891;DHT22;21103;51.358;12.412;2022-08-19T00:21:14;21.70;99.90
34891;DHT22;21103;51.358;12.412;2022-08-19T00:23:40;21.70;99.90
34891;DHT22;21103;51.358;12.412;2022-08-19T00:26:07;21.70;99.90
34891;DHT22;21103;51.358;12.412;2022-08-19T00:28:33;21.80;99.90
34891;DHT22;21103;51.358;12.412;2022-08-19T00:31:02;21.80;99.90
34891;DHT22;21103;51.358;12.412;2022-08-19T00:33:29;21.80;99.90
34891;DHT22;21103;51.358;12.412;2022-08-19T00:35:58;21.80;99.90
34891;DHT22;21103;51.358;12.412;2022-08-19T00:38:23;21.70;99.90
34891;DHT22;21103;51.358;12.412;2022-08-19T00:40:49;21.60;99.90
34891;DHT22;21103;51.358;12.412;2022-08-19T00:43:19;21.60;99.90
34891;DHT22;21103;51.358;12.412;2022-08-19T00:45:45;21.60;99.90
34891;DHT22;21103;51.358;12.412;2022-08-19T00:48:11;21.60;99.90
34891;DHT22;21103;51.358;12.412;2022-08-19T00:50:39;21.60;99.90
34891;DHT22;21103;51.358;12.412;2022-08-19T00:53:06;21.50;99.90
34891;DHT22;21103;51.358;12.412;2022-08-19T00:55:32;21.50;99.90
34891;DHT22;21103;51.358;12.412;2022-08-19T00:58:04;21.50;99.90
34891;DHT22;21103;51.358;12.412;2022-08-19T01:00:32;21.50;99.90
34891;DHT22;21103;51.358;12.412;2022-08-19T01:02:59;21.40;99.90
34891;DHT22;21103;51.358;12.412;2022-08-19T01:05:26;21.40;99.90
34891;DHT22;21103;51.358;12.412;2022-08-19T01:07:54;21.40;99.90
34891;DHT22;21103;51.358;12.412;2022-08-19T01:10:24;21.40;99.90
34891;DHT22;21103;51.358;12.412;2022-08-19T01:12:51;21.40;99.90
34891;DHT22;21103;51.358;12.412;2022-08-19T01:15:21;21.40;99.90
34891;DHT22;21103;51.358;12.412;2022-08-19T01:17:48;21.30;99.90
34891;DHT22;21103;51.358;12.412;2022-08-19T01:20:18;21.30;99.90
34891;DHT22;21103;51.358;12.412;2022-08-19T01:22:51;21.30;99.90
34891;DHT22;21103;51.358;12.412;2022-08-19T01:25:18;21.30;99.90
34891;DHT22;21103;51.358;12.412;2022-08-19T01:27:46;21.30;99.90
34891;DHT22;21103;51.358;12.412;2022-08-19T01:30:19;21.30;99.90
34891;DHT22;21103;51.358;12.412;2022-08-19T01:32:45;21.30;99.90
34891;DHT22;21103;51.358;12.412;2022-08-19T01:35:13;21.20;99.90
34891;DHT22;21103;51.358;12.412;2022-08-19T01:37:51;21.20;99.90
34891;DHT22;21103;51.358;12.412;2022-08-19T01:40:18;21.20;99.90
34891;DHT22;21103;51.358;12.412;2022-08-19T01:42:46;21.30;99.90
34891;DHT22;21103;51.358;12.412;2022-08-19T01:45:13;21.20;99.90
34891;DHT22;21103;51.358;12.412;2022-08-19T01:47:39;21.20;99.90
34891;DHT22;21103;51.358;12.412;2022-08-19T01:50:06;21.20;99.90
34891;DHT22;21103;51.358;12.412;2022-08-19T01:52:35;21.20;99.90
34891;DHT22;21103;51.358;12.412;2022-08-19T01:55:01;21.20;99.90
34891;DHT22;21103;51.358;12.412;2022-08-19T01:57:27;21.20;99.90
34891;DHT22;21103;51.358;12.412;2022-08-19T01:59:52;21.20;99.90
34891;DHT22;21103;51.358;12.412;2022-08-19T02:02:19;21.20;99.90
34891;DHT22;21103;51.358;12.412;2022-08-19T02:04:44;21.20;99.90
34891;DHT22;21103;51.358;12.412;2022-08-19T02:07:11;21.20;99.90
34891;DHT22;21103;51.358;12.412;2022-08-19T02:09:37;21.10;99.90
34891;DHT22;21103;51.358;12.412;2022-08-19T02:12:04;21.10;99.90
34891;DHT22;21103;51.358;12.412;2022-08-19T02:14:30;21.20;99.90
34891;DHT22;21103;51.358;12.412;2022-08-19T02:16:55;21.20;99.90
34891;DHT22;21103;51.358;12.412;2022-08-19T02:19:21;21.20;99.90
34891;DHT22;21103;51.358;12.412;2022-08-19T02:21:47;21.20;99.90
34891;DHT22;21103;51.358;12.412;2022-08-19T02:24:13;21.20;99.90
34891;DHT22;21103;51.358;12.412;2022-08-19T02:26:38;21.20;99.90
34891;DHT22;21103;51.358;12.412;2022-08-19T02:29:04;21.10;99.90
34891;DHT22;21103;51.358;12.412;2022-08-19T02:31:29;21.20;99.90
34891;DHT22;21103;51.358;12.412;2022-08-19T02:33:56;21.20;99.90
34891;DHT22;21103;51.358;12.412;2022-08-19T02:36:22;21.20;99.90
34891;DHT22;21103;51.358;12.412;2022-08-19T02:38:48;21.20;99.90
34891;DHT22;21103;51.358;12.412;2022-08-19T02:41:17;21.30;99.90
34891;DHT22;21103;51.358;12.412;2022-08-19T02:43:43;21.30;99.90
34891;DHT22;21103;51.358;12.412;2022-08-19T02:46:23;21.30;99.90
34891;DHT22;21103;51.358;12.412;2022-08-19T02:48:51;21.30;99.90
34891;DHT22;21103;51.358;12.412;2022-08-19T02:51:32;21.40;99.90
34891;DHT22;21103;51.358;12.412;2022-08-19T02:53:58;21.40;99.90
34891;DHT22;21103;51.358;12.412;2022-08-19T02:56:25;21.40;99.90
34891;DHT22;21103;51.358;12.412;2022-08-19T02:58:52;21.40;99.90
34891;DHT22;21103;51.358;12.412;2022-08-19T03:01:24;21.40;99.90
34891;DHT22;21103;51.358;12.412;2022-08-19T03:03:50;21.30;99.90
34891;DHT22;21103;51.358;12.412;2022-08-19T03:06:16;21.30;99.90
34891;DHT22;21103;51.358;12.412;2022-08-19T03:08:44;21.30;99.90
34891;DHT22;21103;51.358;12.412;2022-08-19T03:11:15;21.30;99.90
34891;DHT22;21103;51.358;12.412;2022-08-19T03:13:41;21.30;99.90
34891;DHT22;21103;51.358;12.412;2022-08-19T03:16:08;21.30;99.90
34891;DHT22;21103;51.358;12.412;2022-08-19T03:18:34;21.30;99.90
34891;DHT22;21103;51.358;12.412;2022-08-19T03:20:59;21.40;99.90
34891;DHT22;21103;51.358;12.412;2022-08-19T03:23:25;21.40;99.90
34891;DHT22;21103;51.358;12.412;2022-08-19T03:25:52;21.40;99.90
34891;DHT22;21103;51.358;12.412;2022-08-19T03:28:19;21.50;99.90
34891;DHT22;21103;51.358;12.412;2022-08-19T03:30:59;21.60;99.90
34891;DHT22;21103;51.358;12.412;2022-08-19T03:33:26;21.60;99.90
34891;DHT22;21103;51.358;12.412;2022-08-19T03:36:11;21.60;99.90
34891;DHT22;21103;51.358;12.412;2022-08-19T03:38:40;21.70;99.90
34891;DHT22;21103;51.358;12.412;2022-08-19T03:41:09;21.70;99.90
34891;DHT22;21103;51.358;12.412;2022-08-19T03:43:36;21.70;99.90
34891;DHT22;21103;51.358;12.412;2022-08-19T03:46:05;21.80;99.90
34891;DHT22;21103;51.358;12.412;2022-08-19T03:48:31;21.80;99.90
34891;DHT22;21103;51.358;12.412;2022-08-19T03:50:57;21.80;99.90
34891;DHT22;21103;51.358;12.412;2022-08-19T03:53:25;21.80;99.90
34891;DHT22;21103;51.358;12.412;2022-08-19T03:55:51;21.70;99.90
34891;DHT22;21103;51.358;12.412;2022-08-19T03:58:17;21.80;99.90
34891;DHT22;21103;51.358;12.412;2022-08-19T04:00:42;21.70;99.90
34891;DHT22;21103;51.358;12.412;2022-08-19T04:03:08;21.70;99.90
34891;DHT22;21103;51.358;12.412;2022-08-19T04:05:34;21.70;99.90
34891;DHT22;21103;51.358;12.412;2022-08-19T04:07:59;21.60;99.90
34891;DHT22;21103;51.358;12.412;2022-08-19T04:10:26;21.60;99.90
34891;DHT22;21103;51.358;12.412;2022-08-19T04:12:52;21.70;99.90
34891;DHT22;21103;51.358;12.412;2022-08-19T04:15:18;21.60;99.90
34891;DHT22;21103;51.358;12.412;2022-08-19T04:17:44;21.60;99.90
34891;DHT22;21103;51.358;12.412;2022-08-19T04:20:09;21.70;99.90
34891;DHT22;21103;51.358;12.412;2022-08-19T04:22:35;21.60;99.90
34891;DHT22;21103;51.358;12.412;2022-08-19T04:25:00;21.60;99.90
34891;DHT22;21103;51.358;12.412;2022-08-19T04:27:26;21.60;99.90
34891;DHT22;21103;51.358;12.412;2022-08-19T04:29:51;21.50;99.90
34891;DHT22;21103;51.358;12.412;2022-08-19T04:32:19;21.50;99.90
34891;DHT22;21103;51.358;12.412;2022-08-19T04:34:44;21.50;99.90
34891;DHT22;21103;51.358;12.412;2022-08-19T04:37:10;21.50;99.90
34891;DHT22;21103;51.358;12.412;2022-08-19T04:39:37;21.50;99.90
34891;DHT22;21103;51.358;12.412;2022-08-19T04:42:21;21.50;99.90
34891;DHT22;21103;51.358;12.412;2022-08-19T04:45:10;21.40;99.90
34891;DHT22;21103;51.358;12.412;2022-08-19T04:47:37;21.30;99.90
34891;DHT22;21103;51.358;12.412;2022-08-19T04:50:05;21.20;99.90
34891;DHT22;21103;51.358;12.412;2022-08-19T04:52:31;21.20;99.90
34891;DHT22;21103;51.358;12.412;2022-08-19T04:54:57;21.30;99.90
34891;DHT22;21103;51.358;12.412;2022-08-19T04:57:23;21.30;99.90
34891;DHT22;21103;51.358;12.412;2022-08-19T04:59:49;21.30;99.90
34891;DHT22;21103;51.358;12.412;2022-08-19T05:02:18;21.40;99.90
34891;DHT22;21103;51.358;12.412;2022-08-19T05:04:43;21.40;99.90
34891;DHT22;21103;51.358;12.412;2022-08-19T05:07:09;21.40;99.90
34891;DHT22;21103;51.358;12.412;2022-08-19T05:09:35;21.50;99.90
34891;DHT22;21103;51.358;12.412;2022-08-19T05:12:01;21.50;99.90
34891;DHT22;21103;51.358;12.412;2022-08-19T05:14:26;21.50;99.90
34891;DHT22;21103;51.358;12.412;2022-08-19T05:16:52;21.50;99.90
34891;DHT22;21103;51.358;12.412;2022-08-19T05:19:17;21.50;99.90
34891;DHT22;21103;51.358;12.412;2022-08-19T05:22:01;21.50;99.90
34891;DHT22;21103;51.358;12.412;2022-08-19T05:24:45;21.50;99.90
34891;DHT22;21103;51.358;12.412;2022-08-19T05:27:11;21.40;99.90
34891;DHT22;21103;51.358;12.412;2022-08-19T05:29:37;21.40;99.90
34891;DHT22;21103;51.358;12.412;2022-08-19T05:32:06;21.40;99.90
34891;DHT22;21103;51.358;12.412;2022-08-19T05:34:36;21.40;99.90
34891;DHT22;21103;51.358;12.412;2022-08-19T05:37:04;21.40;99.90
34891;DHT22;21103;51.358;12.412;2022-08-19T05:39:33;21.40;99.90
34891;DHT22;21103;51.358;12.412;2022-08-19T05:42:01;21.50;99.90
34891;DHT22;21103;51.358;12.412;2022-08-19T05:44:30;21.50;99.90
34891;DHT22;21103;51.358;12.412;2022-08-19T05:47:00;21.40;99.90
34891;DHT22;21103;51.358;12.412;2022-08-19T05:49:27;21.40;99.90
34891;DHT22;21103;51.358;12.412;2022-08-19T05:51:54;21.40;99.90
34891;DHT22;21103;51.358;12.412;2022-08-19T05:54:21;21.40;99.90
34891;DHT22;21103;51.358;12.412;2022-08-19T05:56:49;21.40;99.90
34891;DHT22;21103;51.358;12.412;2022-08-19T05:59:16;21.50;99.90
34891;DHT22;21103;51.358;12.412;2022-08-19T06:01:43;21.50;99.90
34891;DHT22;21103;51.358;12.412;2022-08-19T06:04:09;21.60;99.90
34891;DHT22;21103;51.358;12.412;2022-08-19T06:06:36;21.50;99.90
34891;DHT22;21103;51.358;12.412;2022-08-19T06:09:06;21.50;99.90
34891;DHT22;21103;51.358;12.412;2022-08-19T06:11:43;21.50;99.90
34891;DHT22;21103;51.358;12.412;2022-08-19T06:14:15;21.50;99.90
34891;DHT22;21103;51.358;12.412;2022-08-19T06:16:42;21.50;99.90
34891;DHT22;21103;51.358;12.412;2022-08-19T06:19:11;21.50;99.90
34891;DHT22;21103;51.358;12.412;2022-08-19T06:21:40;21.50;99.90
34891;DHT22;21103;51.358;12.412;2022-08-19T06:24:07;21.50;99.90
34891;DHT22;21103;51.358;12.412;2022-08-19T06:26:35;21.50;99.90
34891;DHT22;21103;51.358;12.412;2022-08-19T06:29:03;21.40;99.90
34891;DHT22;21103;51.358;12.412;2022-08-19T06:31:31;21.30;99.90
34891;DHT22;21103;51.358;12.412;2022-08-19T06:34:00;21.30;99.90
34891;DHT22;21103;51.358;12.412;2022-08-19T06:36:35;21.30;99.90
34891;DHT22;21103;51.358;12.412;2022-08-19T06:39:03;21.30;99.90
34891;DHT22;21103;51.358;12.412;2022-08-19T06:41:29;21.40;99.90
34891;DHT22;21103;51.358;12.412;2022-08-19T06:43:56;21.30;99.90
34891;DHT22;21103;51.358;12.412;2022-08-19T06:46:22;21.30;99.90
34891;DHT22;21103;51.358;12.412;2022-08-19T06:48:48;21.20;99.90
34891;DHT22;21103;51.358;12.412;2022-08-19T06:51:16;21.20;99.90
34891;DHT22;21103;51.358;12.412;2022-08-19T06:53:44;21.20;99.90
34891;DHT22;21103;51.358;12.412;2022-08-19T06:56:12;21.20;99.90
34891;DHT22;21103;51.358;12.412;2022-08-19T06:58:38;21.20;99.90
34891;DHT22;21103;51.358;12.412;2022-08-19T07:01:04;21.20;99.90
34891;DHT22;21103;51.358;12.412;2022-08-19T07:03:31;21.20;99.90
34891;DHT22;21103;51.358;12.412;2022-08-19T07:06:02;21.20;99.90
34891;DHT22;21103;51.358;12.412;2022-08-19T07:08:28;21.30;99.90
34891;DHT22;21103;51.358;12.412;2022-08-19T07:10:54;21.30;99.90
34891;DHT22;21103;51.358;12.412;2022-08-19T07:13:19;21.20;99.90
34891;DHT22;21103;51.358;12.412;2022-08-19T07:15:46;21.20;99.90
34891;DHT22;21103;51.358;12.412;2022-08-19T07:18:12;21.10;99.90
34891;DHT22;21103;51.358;12.412;2022-08-19T07:20:39;21.20;99.90
34891;DHT22;21103;51.358;12.412;2022-08-19T07:23:05;21.10;99.90
34891;DHT22;21103;51.358;12.412;2022-08-19T07:25:30;21.10;99.90
34891;DHT22;21103;51.358;12.412;2022-08-19T07:27:56;21.20;99.90
34891;DHT22;21103;51.358;12.412;2022-08-19T07:30:21;21.20;99.90
34891;DHT22;21103;51.358;12.412;2022-08-19T07:32:48;21.20;99.90
34891;DHT22;21103;51.358;12.412;2022-08-19T07:35:15;21.20;99.90
34891;DHT22;21103;51.358;12.412;2022-08-19T07:37:44;21.10;99.90
34891;DHT22;21103;51.358;12.412;2022-08-19T07:40:11;21.10;99.90
34891;DHT22;21103;51.358;12.412;2022-08-19T07:42:37;21.10;99.90
34891;DHT22;21103;51.358;12.412;2022-08-19T07:45:03;21.10;99.90
34891;DHT22;21103;51.358;12.412;2022-08-19T07:47:28;21.20;99.90
34891;DHT22;21103;51.358;12.412;2022-08-19T07:49:55;21.20;99.90
34891;DHT22;21103;51.358;12.412;2022-08-19T07:52:21;21.20;99.90
34891;DHT22;21103;51.358;12.412;2022-08-19T07:54:47;21.10;99.90
34891;DHT22;21103;51.358;12.412;2022-08-19T07:57:14;21.00;99.90
34891;DHT22;21103;51.358;12.412;2022-08-19T07:59:40;21.00;99.90
34891;DHT22;21103;51.358;12.412;2022-08-19T08:02:07;21.10;99.90
34891;DHT22;21103;51.358;12.412;2022-08-19T08:04:33;21.20;99.90
34891;DHT22;21103;51.358;12.412;2022-08-19T08:07:17;21.20;99.90
34891;DHT22;21103;51.358;12.412;2022-08-19T08:10:02;21.30;99.90
34891;DHT22;21103;51.358;12.412;2022-08-19T08:12:32;21.30;99.90
34891;DHT22;21103;51.358;12.412;2022-08-19T08:15:00;21.30;99.90
34891;DHT22;21103;51.358;12.412;2022-08-19T08:17:30;21.40;99.90
34891;DHT22;21103;51.358;12.412;2022-08-19T08:19:56;21.40;99.90
34891;DHT22;21103;51.358;12.412;2022-08-19T08:22:22;21.50;99.90
34891;DHT22;21103;51.358;12.412;2022-08-19T08:25:16;21.50;99.90
34891;DHT22;21103;51.358;12.412;2022-08-19T08:27:43;21.60;99.90
34891;DHT22;21103;51.358;12.412;2022-08-19T08:30:11;21.60;99.90
34891;DHT22;21103;51.358;12.412;2022-08-19T08:32:37;21.70;99.90
34891;DHT22;21103;51.358;12.412;2022-08-19T08:35:05;21.60;99.90
34891;DHT22;21103;51.358;12.412;2022-08-19T08:37:31;21.50;99.90
34891;DHT22;21103;51.358;12.412;2022-08-19T08:39:57;21.50;99.90
34891;DHT22;21103;51.358;12.412;2022-08-19T08:42:34;21.50;99.90
34891;DHT22;21103;51.358;12.412;2022-08-19T08:45:13;21.60;99.90
34891;DHT22;21103;51.358;12.412;2022-08-19T08:47:43;21.60;99.90
34891;DHT22;21103;51.358;12.412;2022-08-19T08:50:21;21.50;99.90
34891;DHT22;21103;51.358;12.412;2022-08-19T08:52:51;21.50;99.90
34891;DHT22;21103;51.358;12.412;2022-08-19T08:55:24;21.50;99.90
34891;DHT22;21103;51.358;12.412;2022-08-19T09:02:56;21.40;99.90
34891;DHT22;21103;51.358;12.412;2022-08-19T09:05:24;21.50;99.90
34891;DHT22;21103;51.358;12.412;2022-08-19T09:08:07;21.50;99.90
34891;DHT22;21103;51.358;12.412;2022-08-19T09:10:46;21.50;99.90
34891;DHT22;21103;51.358;12.412;2022-08-19T09:13:25;21.50;99.90
34891;DHT22;21103;51.358;12.412;2022-08-19T09:15:59;21.60;99.90
34891;DHT22;21103;51.358;12.412;2022-08-19T09:18:43;21.70;99.90
34891;DHT22;21103;51.358;12.412;2022-08-19T09:21:09;21.70;99.90
34891;DHT22;21103;51.358;12.412;2022-08-19T09:23:36;21.80;99.90
34891;DHT22;21103;51.358;12.412;2022-08-19T09:26:08;21.90;99.90
34891;DHT22;21103;51.358;12.412;2022-08-19T09:28:34;21.90;99.90
34891;DHT22;21103;51.358;12.412;2022-08-19T09:30:59;21.80;99.90
34891;DHT22;21103;51.358;12.412;2022-08-19T09:33:25;21.80;99.90
34891;DHT22;21103;51.358;12.412;2022-08-19T09:36:08;21.80;99.90
34891;DHT22;21103;51.358;12.412;2022-08-19T09:38:35;21.90;99.90
34891;DHT22;21103;51.358;12.412;2022-08-19T09:41:06;21.90;99.90
34891;DHT22;21103;51.358;12.412;2022-08-19T09:43:33;21.80;99.90
34891;DHT22;21103;51.358;12.412;2022-08-19T09:46:03;21.70;99.90
34891;DHT22;21103;51.358;12.412;2022-08-19T09:48:30;21.70;99.90
34891;DHT22;21103;51.358;12.412;2022-08-19T09:51:02;21.70;99.90
34891;DHT22;21103;51.358;12.412;2022-08-19T09:53:28;21.70;99.90
34891;DHT22;21103;51.358;12.412;2022-08-19T09:55:55;21.80;99.90
34891;DHT22;21103;51.358;12.412;2022-08-19T09:58:20;21.90;99.90
34891;DHT22;21103;51.358;12.412;2022-08-19T10:00:46;21.90;99.90
34891;DHT22;21103;51.358;12.412;2022-08-19T10:03:11;21.90;99.90
34891;DHT22;21103;51.358;12.412;2022-08-19T10:05:37;22.00;99.90
34891;DHT22;21103;51.358;12.412;2022-08-19T10:08:17;22.00;99.90
34891;DHT22;21103;51.358;12.412;2022-08-19T10:10:43;21.80;99.90
34891;DHT22;21103;51.358;12.412;2022-08-19T10:13:09;21.80;99.90
34891;DHT22;21103;51.358;12.412;2022-08-19T10:15:40;21.90;99.90
34891;DHT22;21103;51.358;12.412;2022-08-19T10:18:07;22.00;99.90
34891;DHT22;21103;51.358;12.412;2022-08-19T10:20:32;22.00;99.90
34891;DHT22;21103;51.358;12.412;2022-08-19T10:23:03;22.10;99.90
34891;DHT22;21103;51.358;12.412;2022-08-19T10:25:29;22.10;99.90
34891;DHT22;21103;51.358;12.412;2022-08-19T10:27:54;22.20;99.90
34891;DHT22;21103;51.358;12.412;2022-08-19T10:30:20;22.30;99.90
34891;DHT22;21103;51.358;12.412;2022-08-19T10:32:47;22.30;99.90
34891;DHT22;21103;51.358;12.412;2022-08-19T10:35:13;22.40;99.90
34891;DHT22;21103;51.358;12.412;2022-08-19T10:37:39;22.30;99.90
34891;DHT22;21103;51.358;12.412;2022-08-19T10:40:06;22.30;99.90
34891;DHT22;21103;51.358;12.412;2022-08-19T10:42:33;22.40;99.90
34891;DHT22;21103;51.358;12.412;2022-08-19T10:44:58;22.50;99.90
34891;DHT22;21103;51.358;12.412;2022-08-19T10:47:24;22.60;99.90
34891;DHT22;21103;51.358;12.412;2022-08-19T10:49:49;22.60;99.90
34891;DHT22;21103;51.358;12.412;2022-08-19T10:52:34;22.70;99.90
34891;DHT22;21103;51.358;12.412;2022-08-19T10:55:01;22.60;99.90
34891;DHT22;21103;51.358;12.412;2022-08-19T10:57:45;22.60;99.90
34891;DHT22;21103;51.358;12.412;2022-08-19T11:00:11;22.40;99.90
34891;DHT22;21103;51.358;12.412;2022-08-19T11:02:37;22.40;99.90
34891;DHT22;21103;51.358;12.412;2022-08-19T11:05:03;22.20;99.90
34891;DHT22;21103;51.358;12.412;2022-08-19T11:07:29;22.30;99.90
34891;DHT22;21103;51.358;12.412;2022-08-19T11:09:54;22.30;99.90
34891;DHT22;21103;51.358;12.412;2022-08-19T11:12:20;22.30;99.90
34891;DHT22;21103;51.358;12.412;2022-08-19T11:14:46;22.30;99.90
34891;DHT22;21103;51.358;12.412;2022-08-19T11:17:12;22.20;99.90
34891;DHT22;21103;51.358;12.412;2022-08-19T11:19:39;22.20;99.90
34891;DHT22;21103;51.358;12.412;2022-08-19T11:22:07;22.20;99.90
34891;DHT22;21103;51.358;12.412;2022-08-19T11:24:34;22.20;99.90
34891;DHT22;21103;51.358;12.412;2022-08-19T11:27:06;22.20;99.90
34891;DHT22;21103;51.358;12.412;2022-08-19T11:29:33;22.10;99.90
34891;DHT22;21103;51.358;12.412;2022-08-19T11:32:00;22.10;99.90
34891;DHT22;21103;51.358;12.412;2022-08-19T11:34:28;22.20;99.90
34891;DHT22;21103;51.358;12.412;2022-08-19T11:36:55;22.20;99.90
34891;DHT22;21103;51.358;12.412;2022-08-19T11:39:24;22.20;99.90
34891;DHT22;21103;51.358;12.412;2022-08-19T11:41:50;22.30;99.90
34891;DHT22;21103;51.358;12.412;2022-08-19T11:44:16;22.30;99.90
34891;DHT22;21103;51.358;12.412;2022-08-19T11:46:43;22.40;99.90
34891;DHT22;21103;51.358;12.412;2022-08-19T11:49:11;22.50;99.90
34891;DHT22;21103;51.358;12.412;2022-08-19T11:51:37;22.60;99.90
34891;DHT22;21103;51.358;12.412;2022-08-19T11:54:04;22.80;99.90
34891;DHT22;21103;51.358;12.412;2022-08-19T11:56:31;22.90;99.90
34891;DHT22;21103;51.358;12.412;2022-08-19T11:58:56;23.00;99.90
34891;DHT22;21103;51.358;12.412;2022-08-19T12:01:24;23.20;99.90
34891;DHT22;21103;51.358;12.412;2022-08-19T12:03:51;23.30;99.80
34891;DHT22;21103;51.358;12.412;2022-08-19T12:06:38;23.40;99.90
34891;DHT22;21103;51.358;12.412;2022-08-19T12:09:06;23.50;99.70
34891;DHT22;21103;51.358;12.412;2022-08-19T12:11:33;23.40;99.50
34891;DHT22;21103;51.358;12.412;2022-08-19T12:13:58;23.40;99.70
34891;DHT22;21103;51.358;12.412;2022-08-19T12:16:26;23.40;99.50
34891;DHT22;21103;51.358;12.412;2022-08-19T12:18:52;23.30;99.60
34891;DHT22;21103;51.358;12.412;2022-08-19T12:21:21;23.40;99.40
34891;DHT22;21103;51.358;12.412;2022-08-19T12:23:48;23.50;99.10
34891;DHT22;21103;51.358;12.412;2022-08-19T12:26:14;23.50;99.70
34891;DHT22;21103;51.358;12.412;2022-08-19T12:28:40;23.70;99.20
34891;DHT22;21103;51.358;12.412;2022-08-19T12:31:06;23.90;98.70
34891;DHT22;21103;51.358;12.412;2022-08-19T12:33:32;24.00;98.50
34891;DHT22;21103;51.358;12.412;2022-08-19T12:36:03;24.10;98.20
34891;DHT22;21103;51.358;12.412;2022-08-19T12:38:29;24.10;98.40
34891;DHT22;21103;51.358;12.412;2022-08-19T12:40:55;24.20;98.10
34891;DHT22;21103;51.358;12.412;2022-08-19T12:43:20;24.30;98.00
34891;DHT22;21103;51.358;12.412;2022-08-19T12:45:46;24.20;98.90
34891;DHT22;21103;51.358;12.412;2022-08-19T12:48:12;24.40;98.40
34891;DHT22;21103;51.358;12.412;2022-08-19T12:50:42;24.60;98.60
34891;DHT22;21103;51.358;12.412;2022-08-19T12:53:08;24.80;97.60
34891;DHT22;21103;51.358;12.412;2022-08-19T12:55:34;24.90;97.10
34891;DHT22;21103;51.358;12.412;2022-08-19T12:57:59;24.90;97.20
34891;DHT22;21103;51.358;12.412;2022-08-19T13:00:26;25.00;97.90
34891;DHT22;21103;51.358;12.412;2022-08-19T13:02:52;25.10;96.90
34891;DHT22;21103;51.358;12.412;2022-08-19T13:05:24;25.30;96.60
34891;DHT22;21103;51.358;12.412;2022-08-19T13:07:51;25.40;96.90
34891;DHT22;21103;51.358;12.412;2022-08-19T13:10:20;25.60;96.40
34891;DHT22;21103;51.358;12.412;2022-08-19T13:12:48;25.60;96.30
34891;DHT22;21103;51.358;12.412;2022-08-19T13:15:15;25.60;96.10
34891;DHT22;21103;51.358;12.412;2022-08-19T13:17:45;25.70;96.70
34891;DHT22;21103;51.358;12.412;2022-08-19T13:20:11;25.80;96.50
34891;DHT22;21103;51.358;12.412;2022-08-19T13:22:37;25.70;96.20
34891;DHT22;21103;51.358;12.412;2022-08-19T13:25:04;25.80;96.30
34891;DHT22;21103;51.358;12.412;2022-08-19T13:27:30;25.70;96.00
34891;DHT22;21103;51.358;12.412;2022-08-19T13:29:56;25.60;96.30
34891;DHT22;21103;51.358;12.412;2022-08-19T13:32:40;25.60;96.40
34891;DHT22;21103;51.358;12.412;2022-08-19T13:35:24;25.40;96.40
34891;DHT22;21103;51.358;12.412;2022-08-19T13:37:49;25.20;96.80
34891;DHT22;21103;51.358;12.412;2022-08-19T13:40:22;25.10;96.80
34891;DHT22;21103;51.358;12.412;2022-08-19T13:42:51;25.10;96.80
34891;DHT22;21103;51.358;12.412;2022-08-19T13:45:20;25.00;97.20
34891;DHT22;21103;51.358;12.412;2022-08-19T13:47:46;24.90;97.40
34891;DHT22;21103;51.358;12.412;2022-08-19T13:50:16;24.90;97.10
34891;DHT22;21103;51.358;12.412;2022-08-19T13:52:42;24.80;97.20
34891;DHT22;21103;51.358;12.412;2022-08-19T13:55:09;24.60;97.40
34891;DHT22;21103;51.358;12.412;2022-08-19T13:57:35;24.50;97.50
34891;DHT22;21103;51.358;12.412;2022-08-19T14:00:03;24.50;97.50
34891;DHT22;21103;51.358;12.412;2022-08-19T14:02:29;24.40;98.00
34891;DHT22;21103;51.358;12.412;2022-08-19T14:04:55;24.40;97.80
34891;DHT22;21103;51.358;12.412;2022-08-19T14:07:20;24.40;97.70
34891;DHT22;21103;51.358;12.412;2022-08-19T14:09:50;24.40;97.90
34891;DHT22;21103;51.358;12.412;2022-08-19T14:12:19;24.30;97.70
34891;DHT22;21103;51.358;12.412;2022-08-19T14:14:44;24.30;97.90
34891;DHT22;21103;51.358;12.412;2022-08-19T14:17:10;24.30;97.90
34891;DHT22;21103;51.358;12.412;2022-08-19T14:19:35;24.20;98.00
34891;DHT22;21103;51.358;12.412;2022-08-19T14:22:01;24.20;98.00
34891;DHT22;21103;51.358;12.412;2022-08-19T14:24:27;24.30;98.30
34891;DHT22;21103;51.358;12.412;2022-08-19T14:26:53;24.30;98.10
34891;DHT22;21103;51.358;12.412;2022-08-19T14:29:18;24.40;98.00
34891;DHT22;21103;51.358;12.412;2022-08-19T14:31:44;24.50;97.80
34891;DHT22;21103;51.358;12.412;2022-08-19T14:34:10;24.40;98.10
34891;DHT22;21103;51.358;12.412;2022-08-19T14:36:36;24.30;97.90
34891;DHT22;21103;51.358;12.412;2022-08-19T14:39:03;24.30;97.90
34891;DHT22;21103;51.358;12.412;2022-08-19T14:41:29;24.30;97.90
34891;DHT22;21103;51.358;12.412;2022-08-19T14:43:56;24.30;97.90
34891;DHT22;21103;51.358;12.412;2022-08-19T14:46:24;24.20;97.80
34891;DHT22;21103;51.358;12.412;2022-08-19T14:48:51;24.30;98.00
34891;DHT22;21103;51.358;12.412;2022-08-19T14:51:17;24.40;97.80
34891;DHT22;21103;51.358;12.412;2022-08-19T14:53:43;24.50;98.00
34891;DHT22;21103;51.358;12.412;2022-08-19T14:56:14;24.50;97.30
34891;DHT22;21103;51.358;12.412;2022-08-19T14:58:41;24.60;97.20
34891;DHT22;21103;51.358;12.412;2022-08-19T15:01:09;24.60;97.20
34891;DHT22;21103;51.358;12.412;2022-08-19T15:03:34;24.60;97.30
34891;DHT22;21103;51.358;12.412;2022-08-19T15:06:01;24.60;97.10
34891;DHT22;21103;51.358;12.412;2022-08-19T15:08:29;24.70;97.30
34891;DHT22;21103;51.358;12.412;2022-08-19T15:10:55;24.70;97.10
34891;DHT22;21103;51.358;12.412;2022-08-19T15:13:21;24.50;96.90
34891;DHT22;21103;51.358;12.412;2022-08-19T15:15:47;24.50;97.10
34891;DHT22;21103;51.358;12.412;2022-08-19T15:18:13;24.40;97.00
34891;DHT22;21103;51.358;12.412;2022-08-19T15:20:39;24.50;97.60
34891;DHT22;21103;51.358;12.412;2022-08-19T15:23:05;24.50;97.40
34891;DHT22;21103;51.358;12.412;2022-08-19T15:25:31;24.40;97.00